Time;durP1;ratioP1;P1;durP2;ratioP2;P2;SDS_P1;SDS_P2;PMS_P1;PMS_P2;Temp;Humidity;BMP_temperature;BMP_pressure;BME280_temperature;BME280_humidity;BME280_pressure;Samples;Min_cycle;Max_cycle;Signal;HPM_P1;HPM_P2
2022/09/24 00:00:43;;;;;;;11.38;8.23;;;;;;;;;;4881383;29;20032;-78
2022/09/24 00:03:08;;;;;;;15.35;8.75;;;;;;;;;;4880194;29;20044;-77
2022/09/24 00:05:38;;;;;;;13.63;9.27;;;;;;;;;;4880156;29;20025;-77
2022/09/24 00:08:05;;;;;;;55.75;28.10;;;;;;;;;;4881432;29;20462;-77
2022/09/24 00:10:36;;;;;;;181.23;82.10;;;;;;;;;;4880115;29;20074;-78
2022/09/24 00:13:01;;;;;;;125.03;60.00;;;;;;;;;;4881714;29;20040;-78
2022/09/24 00:15:26;;;;;;;73.78;38.63;;;;;;;;;;4881054;29;20017;-79
2022/09/24 00:17:52;;;;;;;50.92;29.02;;;;;;;;;;4881235;29;20500;-79
2022/09/24 00:20:17;;;;;;;43.58;27.30;;;;;;;;;;4883420;29;20056;-78
2022/09/24 00:22:42;;;;;;;15.00;9.85;;;;;;;;;;4886330;29;20033;-79
2022/09/24 00:27:52;;;;;;;12.10;9.38;;;;;;;;;;4883458;29;20084;-78
2022/09/24 00:30:17;;;;;;;10.85;7.43;;;;;;;;;;4882470;29;20112;-80
2022/09/24 00:32:45;;;;;;;6.90;6.28;;;;;;;;;;4882376;29;20029;-80
2022/09/24 00:35:10;;;;;;;8.55;6.93;;;;;;;;;;4881674;29;20013;-80
2022/09/24 00:37:35;;;;;;;11.20;8.15;;;;;;;;;;4884376;29;20036;-81
2022/09/24 00:40:01;;;;;;;18.77;13.73;;;;;;;;;;4885786;29;20032;-81
2022/09/24 00:42:32;;;;;;;21.27;12.25;;;;;;;;;;4885576;29;20037;-81
2022/09/24 00:44:58;;;;;;;15.70;11.55;;;;;;;;;;4886199;29;20029;-77
2022/09/24 00:47:24;;;;;;;11.48;8.15;;;;;;;;;;4880940;29;20025;-77
2022/09/24 00:49:50;;;;;;;12.18;8.10;;;;;;;;;;4880289;29;20036;-77
2022/09/24 00:52:17;;;;;;;15.75;8.05;;;;;;;;;;4881075;29;20074;-77
2022/09/24 00:54:44;;;;;;;15.45;10.50;;;;;;;;;;4881742;29;20029;-76
2022/09/24 00:57:10;;;;;;;35.55;23.27;;;;;;;;;;4881179;29;20057;-75
2022/09/24 00:59:36;;;;;;;17.40;11.77;;;;;;;;;;4880193;29;20466;-76
2022/09/24 01:02:02;;;;;;;13.65;9.50;;;;;;;;;;4880421;29;20028;-75
2022/09/24 01:04:27;;;;;;;14.15;9.05;;;;;;;;;;4892451;29;20033;-85
2022/09/24 01:09:46;;;;;;;22.48;14.70;;;;;;;;;;4539472;27;20111;-82
2022/09/24 01:12:22;;;;;;;21.15;13.63;;;;;;;;;;4885803;29;20055;-82
2022/09/24 01:14:53;;;;;;;23.88;15.65;;;;;;;;;;4884531;29;20465;-81
2022/09/24 01:17:28;;;;;;;31.58;19.30;;;;;;;;;;4885139;29;20032;-79
2022/09/24 01:20:14;;;;;;;11.90;7.85;;;;;;;;;;4884781;29;20482;-79
2022/09/24 01:22:58;;;;;;;15.63;12.10;;;;;;;;;;4902679;29;20036;-79
2022/09/24 01:25:57;;;;;;;20.48;14.50;;;;;;;;;;4904352;29;20058;-79
2022/09/24 01:28:40;;;;;;;26.52;18.50;;;;;;;;;;4885527;29;20366;-78
2022/09/24 01:31:09;;;;;;;11.73;8.60;;;;;;;;;;4884976;29;20067;-79
2022/09/24 01:33:35;;;;;;;12.20;7.80;;;;;;;;;;4885432;29;20177;-79
2022/09/24 01:36:07;;;;;;;8.00;6.70;;;;;;;;;;4902336;29;20085;-79
2022/09/24 01:38:34;;;;;;;6.57;5.85;;;;;;;;;;4884850;29;20115;-79
2022/09/24 01:41:02;;;;;;;11.80;5.82;;;;;;;;;;4883810;29;20111;-76
2022/09/24 01:43:29;;;;;;;9.60;6.03;;;;;;;;;;4897897;29;20123;-75
2022/09/24 01:45:57;;;;;;;9.20;6.30;;;;;;;;;;4898723;29;20032;-75
2022/09/24 01:48:23;;;;;;;14.07;10.00;;;;;;;;;;4899138;29;20051;-75
2022/09/24 01:51:08;;;;;;;14.50;8.25;;;;;;;;;;4881713;29;20036;-76
2022/09/24 01:53:36;;;;;;;11.18;7.60;;;;;;;;;;4898748;29;20119;-75
2022/09/24 01:56:09;;;;;;;12.30;8.55;;;;;;;;;;4898581;29;20032;-77
2022/09/24 01:58:39;;;;;;;10.23;7.00;;;;;;;;;;4898574;29;20084;-75
2022/09/24 02:01:08;;;;;;;10.23;8.00;;;;;;;;;;4897807;29;20028;-75
2022/09/24 02:03:42;;;;;;;13.10;8.20;;;;;;;;;;4898665;29;20039;-75
2022/09/24 02:06:11;;;;;;;20.38;11.95;;;;;;;;;;4898695;29;20024;-75
2022/09/24 02:08:38;;;;;;;11.23;8.73;;;;;;;;;;4898235;29;20401;-75
2022/09/24 02:11:06;;;;;;;12.60;8.40;;;;;;;;;;4897440;29;20119;-75
2022/09/24 02:13:39;;;;;;;11.40;7.22;;;;;;;;;;4898609;29;20028;-74
2022/09/24 02:16:06;;;;;;;14.88;9.55;;;;;;;;;;4898396;29;20065;-74
2022/09/24 02:18:33;;;;;;;11.10;8.20;;;;;;;;;;4898665;29;20037;-75
2022/09/24 02:21:00;;;;;;;8.95;7.22;;;;;;;;;;4900810;29;20031;-74
2022/09/24 02:23:27;;;;;;;10.52;6.78;;;;;;;;;;4902157;29;20362;-75
2022/09/24 02:25:56;;;;;;;9.35;6.43;;;;;;;;;;4901976;29;20064;-75
2022/09/24 02:28:22;;;;;;;7.57;6.43;;;;;;;;;;4885063;29;20037;-75
2022/09/24 02:30:49;;;;;;;22.58;15.18;;;;;;;;;;4902215;29;20033;-76
2022/09/24 02:35:59;;;;;;;11.93;9.82;;;;;;;;;;4901870;29;20036;-75
2022/09/24 02:38:24;;;;;;;11.50;8.13;;;;;;;;;;4885162;29;20047;-75
2022/09/24 02:40:50;;;;;;;10.07;7.70;;;;;;;;;;4902344;29;20164;-78
2022/09/24 02:43:15;;;;;;;10.68;7.43;;;;;;;;;;4886051;29;20072;-78
2022/09/24 02:45:41;;;;;;;11.57;7.75;;;;;;;;;;4901199;29;20033;-72
2022/09/24 02:48:06;;;;;;;12.90;8.68;;;;;;;;;;4884960;29;20028;-73
2022/09/24 02:50:32;;;;;;;10.07;7.88;;;;;;;;;;4901383;29;20056;-74
2022/09/24 02:52:57;;;;;;;14.27;8.85;;;;;;;;;;4884991;29;20506;-79
2022/09/24 02:55:23;;;;;;;11.35;8.18;;;;;;;;;;4902128;29;20378;-79
2022/09/24 02:57:48;;;;;;;9.35;7.50;;;;;;;;;;4885133;29;20021;-79
2022/09/24 03:00:14;;;;;;;12.70;7.78;;;;;;;;;;4902294;29;20040;-78
2022/09/24 03:02:39;;;;;;;9.43;7.30;;;;;;;;;;4901895;29;20031;-80
2022/09/24 03:05:05;;;;;;;12.18;7.60;;;;;;;;;;4885998;29;20037;-79
2022/09/24 03:07:31;;;;;;;10.48;7.68;;;;;;;;;;4884700;29;20389;-78
2022/09/24 03:09:58;;;;;;;11.70;8.20;;;;;;;;;;4901739;29;20102;-79
2022/09/24 03:12:23;;;;;;;13.90;8.13;;;;;;;;;;4885287;29;20032;-79
2022/09/24 03:14:49;;;;;;;10.90;7.85;;;;;;;;;;4885743;29;20036;-79
2022/09/24 03:17:14;;;;;;;9.38;7.22;;;;;;;;;;4888906;29;20027;-78
2022/09/24 03:19:40;;;;;;;12.30;8.35;;;;;;;;;;4905464;29;20478;-79
2022/09/24 03:22:06;;;;;;;11.52;8.05;;;;;;;;;;4905197;29;20458;-79
2022/09/24 03:24:31;;;;;;;11.13;7.38;;;;;;;;;;4904414;29;20036;-79
2022/09/24 03:26:57;;;;;;;10.65;7.88;;;;;;;;;;4904338;29;20025;-79
2022/09/24 03:30:58;;;;;;;11.57;8.00;;;;;;;;;;4903986;29;20037;-80
2022/09/24 03:32:07;;;;;;;11.73;7.90;;;;;;;;;;4903761;29;20040;-79
2022/09/24 03:34:33;;;;;;;9.73;7.30;;;;;;;;;;4903706;29;20035;-78
2022/09/24 03:36:58;;;;;;;10.77;7.75;;;;;;;;;;4903828;29;20036;-78
2022/09/24 03:39:23;;;;;;;12.63;7.57;;;;;;;;;;4903555;29;20039;-79
2022/09/24 03:41:49;;;;;;;8.52;7.15;;;;;;;;;;4902827;29;20069;-78
2022/09/24 03:44:14;;;;;;;12.93;6.95;;;;;;;;;;4886310;29;20025;-78
2022/09/24 03:46:40;;;;;;;10.18;7.18;;;;;;;;;;4902980;29;20108;-78
2022/09/24 03:49:05;;;;;;;12.23;7.65;;;;;;;;;;4902431;29;20479;-78
2022/09/24 03:51:30;;;;;;;9.70;7.70;;;;;;;;;;4903067;29;20085;-79
2022/09/24 03:53:56;;;;;;;11.85;8.20;;;;;;;;;;4886843;29;20485;-79
2022/09/24 03:56:21;;;;;;;12.23;7.20;;;;;;;;;;4901749;29;20028;-77
2022/09/24 03:58:46;;;;;;;9.35;7.85;;;;;;;;;;4902216;29;20020;-77
2022/09/24 04:01:13;;;;;;;10.65;7.55;;;;;;;;;;4901857;29;20073;-79
2022/09/24 04:03:39;;;;;;;9.38;7.30;;;;;;;;;;4901833;29;20517;-79
2022/09/24 04:06:05;;;;;;;9.95;7.47;;;;;;;;;;4887128;29;20064;-79
2022/09/24 04:08:31;;;;;;;8.75;7.05;;;;;;;;;;4885797;29;20104;-79
2022/09/24 04:10:56;;;;;;;10.30;7.38;;;;;;;;;;4902390;29;20499;-79
2022/09/24 04:13:21;;;;;;;9.35;7.28;;;;;;;;;;4901965;29;20083;-79
2022/09/24 04:15:49;;;;;;;9.07;7.82;;;;;;;;;;4886974;29;20040;-79
2022/09/24 04:18:14;;;;;;;10.02;7.72;;;;;;;;;;4885996;29;20056;-79
2022/09/24 04:20:40;;;;;;;10.00;7.88;;;;;;;;;;4902421;29;20037;-79
2022/09/24 04:23:06;;;;;;;12.90;7.88;;;;;;;;;;4901233;29;20032;-78
2022/09/24 04:25:31;;;;;;;11.35;8.13;;;;;;;;;;4884747;29;20029;-78
2022/09/24 04:27:58;;;;;;;10.88;7.95;;;;;;;;;;4901343;29;20032;-78
2022/09/24 04:30:24;;;;;;;10.52;8.07;;;;;;;;;;4901874;29;20344;-78
2022/09/24 04:32:50;;;;;;;14.82;8.82;;;;;;;;;;4901276;29;20032;-78
2022/09/24 04:35:16;;;;;;;13.77;8.98;;;;;;;;;;4883605;29;20032;-77
2022/09/24 04:37:42;;;;;;;28.05;15.75;;;;;;;;;;4899622;29;20039;-79
2022/09/24 04:40:09;;;;;;;25.45;17.67;;;;;;;;;;4884602;29;20465;-78
2022/09/24 04:42:34;;;;;;;28.88;19.13;;;;;;;;;;4900436;29;20072;-79
2022/09/24 04:45:01;;;;;;;57.20;36.97;;;;;;;;;;4883558;29;20032;-79
2022/09/24 04:47:26;;;;;;;48.85;32.08;;;;;;;;;;4900995;29;20031;-79
2022/09/24 04:49:52;;;;;;;32.47;18.42;;;;;;;;;;4900683;29;20389;-79
2022/09/24 04:52:17;;;;;;;16.67;11.77;;;;;;;;;;4868878;29;20025;-79
2022/09/24 04:54:45;;;;;;;11.98;9.95;;;;;;;;;;4884194;29;20040;-79
2022/09/24 04:57:12;;;;;;;8.15;6.93;;;;;;;;;;4900937;29;20454;-79
2022/09/24 04:59:37;;;;;;;10.15;6.95;;;;;;;;;;4900808;29;20084;-78
2022/09/24 05:02:02;;;;;;;10.68;7.70;;;;;;;;;;4900184;29;20016;-77
2022/09/24 05:04:29;;;;;;;12.40;10.48;;;;;;;;;;4898039;29;20070;-76
2022/09/24 05:07:12;;;;;;;15.07;10.25;;;;;;;;;;4906284;28;20021;-83
2022/09/24 05:09:37;;;;;;;12.70;10.43;;;;;;;;;;4907039;29;20056;-85
2022/09/24 05:14:45;;;;;;;11.05;9.20;;;;;;;;;;4898009;29;20100;-77
2022/09/24 05:17:13;;;;;;;13.68;9.95;;;;;;;;;;4899431;29;20029;-77
2022/09/24 05:19:38;;;;;;;11.75;9.43;;;;;;;;;;4899330;29;20454;-77
2022/09/24 05:22:04;;;;;;;15.18;10.20;;;;;;;;;;4881699;29;20044;-77
2022/09/24 05:24:29;;;;;;;16.17;9.48;;;;;;;;;;4884434;29;20025;-77
2022/09/24 05:27:10;;;;;;;15.25;10.98;;;;;;;;;;4866800;29;20040;-79
2022/09/24 05:29:35;;;;;;;14.82;9.73;;;;;;;;;;4881294;29;20462;-79
2022/09/24 05:32:05;;;;;;;14.20;10.10;;;;;;;;;;4863409;29;20113;-76
2022/09/24 05:34:30;;;;;;;13.27;10.07;;;;;;;;;;4879374;29;20033;-77
2022/09/24 05:36:56;;;;;;;42.70;23.13;;;;;;;;;;4863189;29;20072;-78
2022/09/24 05:39:21;;;;;;;43.88;25.52;;;;;;;;;;4862974;29;20029;-78
2022/09/24 05:41:46;;;;;;;70.57;42.42;;;;;;;;;;4879425;29;20446;-78
2022/09/24 05:44:12;;;;;;;61.20;37.58;;;;;;;;;;4878770;29;20033;-78
2022/09/24 05:46:37;;;;;;;175.30;102.30;;;;;;;;;;4879148;29;20029;-77
2022/09/24 05:49:03;;;;;;;115.55;68.82;;;;;;;;;;4879415;29;20120;-78
2022/09/24 05:51:29;;;;;;;119.95;76.15;;;;;;;;;;4879327;29;20039;-77
2022/09/24 05:53:54;;;;;;;159.65;92.55;;;;;;;;;;4878744;29;20072;-77
2022/09/24 05:56:22;;;;;;;78.10;46.20;;;;;;;;;;4882887;29;20045;-77
2022/09/24 05:58:48;;;;;;;59.40;34.50;;;;;;;;;;4883892;29;20033;-77
2022/09/24 06:01:14;;;;;;;175.43;97.47;;;;;;;;;;4883398;29;20031;-77
2022/09/24 06:03:39;;;;;;;57.95;34.55;;;;;;;;;;4883309;29;20085;-77
2022/09/24 06:06:06;;;;;;;19.70;13.63;;;;;;;;;;4866863;29;20081;-78
2022/09/24 06:08:32;;;;;;;20.45;13.55;;;;;;;;;;4868653;29;20044;-77
2022/09/24 06:11:07;;;;;;;17.45;12.25;;;;;;;;;;4871019;29;20025;-77
2022/09/24 06:13:34;;;;;;;21.05;12.98;;;;;;;;;;4886909;29;20051;-77
2022/09/24 06:16:00;;;;;;;19.42;13.52;;;;;;;;;;4869569;29;20117;-78
2022/09/24 06:18:27;;;;;;;41.85;22.40;;;;;;;;;;4885356;29;20033;-77
2022/09/24 06:20:53;;;;;;;56.08;29.85;;;;;;;;;;4868621;29;20064;-77
2022/09/24 06:23:19;;;;;;;57.45;30.42;;;;;;;;;;4856206;29;20034;-77
2022/09/24 06:25:47;;;;;;;56.15;29.95;;;;;;;;;;4870771;29;20017;-76
2022/09/24 06:28:14;;;;;;;54.30;27.92;;;;;;;;;;4902968;29;20033;-76
2022/09/24 06:30:40;;;;;;;45.15;25.00;;;;;;;;;;4885552;29;20021;-76
2022/09/24 06:33:09;;;;;;;25.70;16.50;;;;;;;;;;4903335;29;20037;-77
2022/09/24 06:35:35;;;;;;;21.05;14.40;;;;;;;;;;4889661;29;20084;-78
2022/09/24 06:38:01;;;;;;;20.50;13.48;;;;;;;;;;4889586;29;20037;-78
2022/09/24 06:40:26;;;;;;;20.83;14.48;;;;;;;;;;4906159;29;20485;-78
2022/09/24 06:42:54;;;;;;;57.05;18.98;;;;;;;;;;4905864;29;20045;-78
2022/09/24 06:45:20;;;;;;;36.47;19.02;;;;;;;;;;4873696;29;20028;-78
2022/09/24 06:47:52;;;;;;;31.30;15.27;;;;;;;;;;4905933;29;20033;-78
2022/09/24 06:50:17;;;;;;;20.35;11.68;;;;;;;;;;4906123;29;20036;-78
2022/09/24 06:52:43;;;;;;;17.20;11.88;;;;;;;;;;4904926;29;20036;-76
2022/09/24 06:55:08;;;;;;;17.60;10.73;;;;;;;;;;4906139;29;20044;-78
2022/09/24 06:57:34;;;;;;;17.00;11.13;;;;;;;;;;4873271;29;20056;-78
2022/09/24 06:59:59;;;;;;;19.60;11.35;;;;;;;;;;4905408;29;20355;-77
2022/09/24 07:02:24;;;;;;;17.27;10.68;;;;;;;;;;4887721;29;20025;-77
2022/09/24 07:04:51;;;;;;;31.38;11.50;;;;;;;;;;4905488;29;20048;-79
2022/09/24 07:07:29;;;;;;;18.60;11.05;;;;;;;;;;4904321;29;20032;-77
2022/09/24 07:09:55;;;;;;;17.67;10.73;;;;;;;;;;4886449;29;20059;-77
2022/09/24 07:12:21;;;;;;;17.45;11.20;;;;;;;;;;4887006;29;20067;-77
2022/09/24 07:14:47;;;;;;;18.83;10.88;;;;;;;;;;4904273;29;20494;-77
2022/09/24 07:17:12;;;;;;;21.30;11.93;;;;;;;;;;4887301;29;20060;-77
2022/09/24 07:19:40;;;;;;;11.63;8.25;;;;;;;;;;4887556;29;20059;-77
2022/09/24 07:22:06;;;;;;;10.23;6.57;;;;;;;;;;4887108;29;20028;-77
2022/09/24 07:24:31;;;;;;;8.25;6.13;;;;;;;;;;4904010;29;20465;-77
2022/09/24 07:26:57;;;;;;;6.95;5.60;;;;;;;;;;4870606;29;20025;-77
2022/09/24 07:29:22;;;;;;;6.43;5.43;;;;;;;;;;4886269;29;20035;-77
2022/09/24 07:31:47;;;;;;;6.32;5.63;;;;;;;;;;4885647;29;20059;-76
2022/09/24 07:34:13;;;;;;;5.60;5.03;;;;;;;;;;4885601;29;20544;-76
2022/09/24 07:36:39;;;;;;;9.50;4.60;;;;;;;;;;4902864;29;20040;-77
2022/09/24 07:39:04;;;;;;;5.53;4.15;;;;;;;;;;4902433;29;20063;-77
2022/09/24 07:41:30;;;;;;;4.55;3.85;;;;;;;;;;4902844;29;20021;-77
2022/09/24 07:43:55;;;;;;;4.97;3.90;;;;;;;;;;4886070;29;20123;-77
2022/09/24 07:46:21;;;;;;;4.22;3.72;;;;;;;;;;4903499;29;20016;-77
2022/09/24 07:48:48;;;;;;;4.60;4.20;;;;;;;;;;4886518;29;20031;-77
2022/09/24 07:51:13;;;;;;;6.32;4.53;;;;;;;;;;4903044;29;20024;-77
2022/09/24 07:56:29;;;;;;;4.40;4.00;;;;;;;;;;5031717;23;20059;-88
2022/09/24 07:58:55;;;;;;;4.50;3.63;;;;;;;;;;4955842;29;20042;-87
2022/09/24 08:01:25;;;;;;;3.97;3.63;;;;;;;;;;4956607;29;20028;-87
2022/09/24 08:03:51;;;;;;;4.15;3.50;;;;;;;;;;4957164;29;20027;-88
2022/09/24 08:06:22;;;;;;;4.35;3.95;;;;;;;;;;4956051;29;20028;-87
2022/09/24 08:08:48;;;;;;;4.75;3.83;;;;;;;;;;4956152;29;20042;-87
2022/09/24 08:11:16;;;;;;;7.07;4.30;;;;;;;;;;4939587;29;20027;-86
2022/09/24 08:13:42;;;;;;;4.13;3.72;;;;;;;;;;4939910;29;20040;-87
2022/09/24 08:16:13;;;;;;;4.05;3.38;;;;;;;;;;4939706;29;20032;-88
2022/09/24 08:18:39;;;;;;;3.55;3.25;;;;;;;;;;4955646;29;20059;-88
2022/09/24 08:21:10;;;;;;;5.05;3.53;;;;;;;;;;4939801;29;20384;-87
2022/09/24 08:23:36;;;;;;;4.18;3.78;;;;;;;;;;4956595;29;20027;-87
2022/09/24 08:26:08;;;;;;;7.50;4.07;;;;;;;;;;4956287;29;20026;-87
2022/09/24 08:28:34;;;;;;;9.80;5.10;;;;;;;;;;4955915;29;20036;-88
2022/09/24 08:31:08;;;;;;;6.05;4.88;;;;;;;;;;4955812;29;20055;-88
2022/09/24 08:33:35;;;;;;;5.90;4.80;;;;;;;;;;4938786;29;20035;-88
2022/09/24 08:36:04;;;;;;;5.47;4.82;;;;;;;;;;4929535;29;20444;-76
2022/09/24 08:38:30;;;;;;;4.40;3.95;;;;;;;;;;4921055;29;20036;-75
2022/09/24 08:41:03;;;;;;;6.53;4.15;;;;;;;;;;4938118;29;20079;-79
2022/09/24 08:43:29;;;;;;;8.50;5.80;;;;;;;;;;4921008;29;20190;-77
2022/09/24 08:48:45;;;;;;;9.73;5.55;;;;;;;;;;4920695;29;20051;-78
2022/09/24 08:51:12;;;;;;;6.50;4.90;;;;;;;;;;4939794;29;20034;-76
2022/09/24 08:53:44;;;;;;;6.30;5.00;;;;;;;;;;4937733;29;20499;-77
2022/09/24 08:56:10;;;;;;;4.45;3.65;;;;;;;;;;4905036;29;20134;-81
2022/09/24 08:58:57;;;;;;;4.97;3.67;;;;;;;;;;4937699;29;20106;-77
2022/09/24 09:01:29;;;;;;;4.13;3.70;;;;;;;;;;4919910;29;20495;-76
2022/09/24 09:04:04;;;;;;;3.55;3.25;;;;;;;;;;4921887;29;20028;-77
2022/09/24 09:06:45;;;;;;;4.05;3.50;;;;;;;;;;4940766;29;20036;-77
2022/09/24 09:09:12;;;;;;;3.80;3.47;;;;;;;;;;4908713;29;20082;-77
2022/09/24 09:11:38;;;;;;;5.75;3.53;;;;;;;;;;4922935;29;20027;-77
2022/09/24 09:14:24;;;;;;;4.72;3.28;;;;;;;;;;4921825;29;20050;-77
2022/09/24 09:16:52;;;;;;;3.40;3.10;;;;;;;;;;4922536;29;20039;-77
2022/09/24 09:19:20;;;;;;;6.80;3.65;;;;;;;;;;4939187;29;20035;-77
2022/09/24 09:21:51;;;;;;;3.10;2.90;;;;;;;;;;4921007;29;20035;-77
2022/09/24 09:24:16;;;;;;;3.80;3.38;;;;;;;;;;4938134;29;20119;-77
2022/09/24 09:26:45;;;;;;;3.72;3.42;;;;;;;;;;4936797;29;20055;-77
2022/09/24 09:29:10;;;;;;;4.85;4.03;;;;;;;;;;4936982;29;20138;-77
2022/09/24 09:31:49;;;;;;;4.60;3.20;;;;;;;;;;4937849;29;20059;-77
2022/09/24 09:34:33;;;;;;;5.30;3.65;;;;;;;;;;4937612;29;20030;-77
2022/09/24 09:37:11;;;;;;;5.90;4.25;;;;;;;;;;4932754;29;20078;-77
2022/09/24 09:39:36;;;;;;;3.40;3.10;;;;;;;;;;4922529;29;20035;-77
2022/09/24 09:42:21;;;;;;;3.22;3.00;;;;;;;;;;4925454;29;20040;-77
2022/09/24 09:44:47;;;;;;;6.68;2.88;;;;;;;;;;4939460;29;20031;-78
2022/09/24 09:47:15;;;;;;;2.97;2.78;;;;;;;;;;4938063;29;20023;-77
2022/09/24 09:49:42;;;;;;;4.50;3.08;;;;;;;;;;4937376;29;20032;-77
2022/09/24 09:52:13;;;;;;;3.35;2.92;;;;;;;;;;4938705;29;20484;-77
2022/09/24 09:54:40;;;;;;;3.45;3.03;;;;;;;;;;4921054;29;20388;-77
2022/09/24 09:57:11;;;;;;;4.22;3.83;;;;;;;;;;4938194;29;20044;-77
2022/09/24 09:59:37;;;;;;;;;;;;;;;;;;4939139;29;20046;-77
2022/09/24 10:02:08;;;;;;;2.90;2.70;;;;;;;;;;4937978;29;19974;-77
2022/09/24 10:04:34;;;;;;;2.22;2.03;;;;;;;;;;4937918;29;20028;-77
2022/09/24 10:07:07;;;;;;;2.40;2.20;;;;;;;;;;4937499;29;20387;-77
2022/09/24 10:09:33;;;;;;;2.92;2.63;;;;;;;;;;4937370;29;20032;-77
2022/09/24 10:12:05;;;;;;;2.42;2.10;;;;;;;;;;4920185;29;20101;-77
2022/09/24 10:14:36;;;;;;;3.78;2.47;;;;;;;;;;4937217;29;20031;-77
2022/09/24 10:17:04;;;;;;;2.28;2.08;;;;;;;;;;4937640;29;20122;-77
2022/09/24 10:19:31;;;;;;;3.33;2.70;;;;;;;;;;4935801;29;20111;-77
2022/09/24 10:21:57;;;;;;;2.85;2.22;;;;;;;;;;4920879;29;20031;-77
2022/09/24 10:24:24;;;;;;;2.35;2.08;;;;;;;;;;4936128;29;20429;-77
2022/09/24 10:26:49;;;;;;;3.83;2.20;;;;;;;;;;4936188;29;20086;-77
2022/09/24 10:32:01;;;;;;;2.63;2.42;;;;;;;;;;4917254;29;20087;-77
2022/09/24 10:34:27;;;;;;;2.38;2.22;;;;;;;;;;4917963;29;20040;-77
2022/09/24 10:37:03;;;;;;;1.85;1.75;;;;;;;;;;4934905;29;20042;-77
2022/09/24 10:39:29;;;;;;;2.03;1.92;;;;;;;;;;4917467;29;20047;-77
2022/09/24 10:41:55;;;;;;;2.17;2.08;;;;;;;;;;4937300;29;20095;-77
2022/09/24 10:44:21;;;;;;;2.20;2.00;;;;;;;;;;4921527;29;20519;-77
2022/09/24 10:47:06;;;;;;;9.88;5.68;;;;;;;;;;4921865;29;20175;-78
2022/09/24 10:49:35;;;;;;;2.00;1.90;;;;;;;;;;4938521;29;20028;-61
2022/09/24 10:52:03;;;;;;;2.13;1.90;;;;;;;;;;4938502;29;20063;-76
2022/09/24 10:54:55;;;;;;;2.42;2.33;;;;;;;;;;4920853;29;20035;-76
2022/09/24 10:57:27;;;;;;;3.75;2.40;;;;;;;;;;4920781;29;20047;-76
2022/09/24 10:59:58;;;;;;;1.85;1.75;;;;;;;;;;4937952;29;20119;-76
2022/09/24 11:02:38;;;;;;;;;;;;;;;;;;4926718;29;20019;-86
2022/09/24 11:05:09;;;;;;;3.08;2.05;;;;;;;;;;4944967;29;19911;-86
2022/09/24 11:07:36;;;;;;;3.45;2.97;;;;;;;;;;4961479;29;20028;-86
2022/09/24 11:10:14;;;;;;;4.35;2.47;;;;;;;;;;4962245;29;20047;-86
2022/09/24 11:12:48;;;;;;;1.98;1.88;;;;;;;;;;4961444;29;20058;-86
2022/09/24 11:15:34;;;;;;;3.60;2.95;;;;;;;;;;4944832;29;20032;-86
2022/09/24 11:18:18;;;;;;;1.75;1.65;;;;;;;;;;4940803;29;20035;-85
2022/09/24 11:20:54;;;;;;;1.65;1.55;;;;;;;;;;4959592;29;20036;-85
2022/09/24 11:23:40;;;;;;;1.83;1.73;;;;;;;;;;4960167;29;20032;-86
2022/09/24 11:26:21;;;;;;;69.53;27.55;;;;;;;;;;4960298;29;20030;-85
2022/09/24 11:28:49;;;;;;;15.95;7.38;;;;;;;;;;4960407;29;20468;-85
2022/09/24 11:31:18;;;;;;;2.67;2.33;;;;;;;;;;4960515;29;20118;-86
2022/09/24 11:34:13;;;;;;;2.40;2.10;;;;;;;;;;4959748;29;20015;-76
2022/09/24 11:36:48;;;;;;;5.85;3.22;;;;;;;;;;4904236;29;20039;-76
2022/09/24 11:39:20;;;;;;;2.83;2.55;;;;;;;;;;4920565;29;20040;-76
2022/09/24 11:41:48;;;;;;;2.13;1.92;;;;;;;;;;4921224;29;20135;-76
2022/09/24 11:44:20;;;;;;;5.05;2.47;;;;;;;;;;4937942;29;20024;-76
2022/09/24 11:46:58;;;;;;;5.65;2.60;;;;;;;;;;4937896;29;20111;-76
2022/09/24 11:49:26;;;;;;;2.83;2.20;;;;;;;;;;4920742;29;20040;-76
2022/09/24 11:52:09;;;;;;;1.88;1.77;;;;;;;;;;4921182;29;20126;-75
2022/09/24 11:54:37;;;;;;;17.30;8.60;;;;;;;;;;4920764;29;20078;-76
2022/09/24 11:57:11;;;;;;;8.35;4.63;;;;;;;;;;4937582;29;20054;-75
2022/09/24 11:59:51;;;;;;;8.90;5.00;;;;;;;;;;4937284;29;20040;-75
2022/09/24 12:02:18;;;;;;;1.97;1.77;;;;;;;;;;4923592;29;20043;-75
2022/09/24 12:04:43;;;;;;;3.08;2.20;;;;;;;;;;4941845;29;20747;-75
2022/09/24 12:07:12;;;;;;;2.08;1.92;;;;;;;;;;4939297;29;20119;-75
2022/09/24 12:09:40;;;;;;;175.85;18.48;;;;;;;;;;4938419;29;20023;-76
2022/09/24 12:12:07;;;;;;;4.30;2.58;;;;;;;;;;4938471;29;20063;-76
2022/09/24 12:14:43;;;;;;;2.30;2.10;;;;;;;;;;4937832;29;20396;-75
2022/09/24 12:17:14;;;;;;;2.38;1.80;;;;;;;;;;4922656;29;20034;-84
2022/09/24 12:19:40;;;;;;;;;;;;;;;;;;4939356;29;20035;-85
2022/09/24 12:22:07;;;;;;;2.08;1.88;;;;;;;;;;4957689;29;19915;-85
2022/09/24 12:25:07;;;;;;;2.67;2.03;;;;;;;;;;4940145;29;20058;-85
2022/09/24 12:27:44;;;;;;;1.70;1.60;;;;;;;;;;4878353;29;20049;-84
2022/09/24 12:33:16;;;;;;;2.80;1.55;;;;;;;;;;4953598;29;20036;-84
2022/09/24 12:36:00;;;;;;;1.85;1.70;;;;;;;;;;4953461;29;20028;-85
2022/09/24 12:38:33;;;;;;;1.63;1.52;;;;;;;;;;4954304;29;20059;-85
2022/09/24 12:41:01;;;;;;;3.30;2.90;;;;;;;;;;4955312;29;20108;-84
2022/09/24 12:43:47;;;;;;;1.80;1.67;;;;;;;;;;4953750;29;20015;-84
2022/09/24 12:46:18;;;;;;;3.92;1.60;;;;;;;;;;4913185;29;20039;-84
2022/09/24 12:48:44;;;;;;;2.55;1.50;;;;;;;;;;4920943;29;20032;-84
2022/09/24 12:51:23;;;;;;;2.78;1.73;;;;;;;;;;4952973;29;20052;-84
2022/09/24 12:53:56;;;;;;;186.75;76.82;;;;;;;;;;4953972;29;20031;-84
2022/09/24 12:56:23;;;;;;;16.55;7.93;;;;;;;;;;4953617;29;20126;-85
2022/09/24 12:58:50;;;;;;;3.72;2.58;;;;;;;;;;4947831;29;20070;-75
2022/09/24 13:01:21;;;;;;;4.80;3.22;;;;;;;;;;4920701;29;20111;-75
2022/09/24 13:04:00;;;;;;;3.70;2.40;;;;;;;;;;4919959;29;20032;-75
2022/09/24 13:06:33;;;;;;;5.22;3.58;;;;;;;;;;4920370;29;20067;-75
2022/09/24 13:08:59;;;;;;;2.42;1.80;;;;;;;;;;4904612;29;20147;-75
2022/09/24 13:11:24;;;;;;;2.50;1.65;;;;;;;;;;4937167;29;20500;-76
2022/09/24 13:14:16;;;;;;;1.83;1.73;;;;;;;;;;4937416;29;20039;-76
2022/09/24 13:16:45;;;;;;;2.75;1.88;;;;;;;;;;4919680;29;20389;-76
2022/09/24 13:19:33;;;;;;;2.65;1.80;;;;;;;;;;4936280;29;20079;-76
2022/09/24 13:21:59;;;;;;;2.90;1.80;;;;;;;;;;4936579;29;20107;-76
2022/09/24 13:24:29;;;;;;;3.50;1.90;;;;;;;;;;4919482;29;20088;-76
2022/09/24 13:27:07;;;;;;;1.50;1.40;;;;;;;;;;4936442;29;20073;-76
2022/09/24 13:29:36;;;;;;;2.58;2.38;;;;;;;;;;4936450;29;20082;-76
2022/09/24 13:32:02;;;;;;;3.13;2.83;;;;;;;;;;4936212;29;20127;-76
2022/09/24 13:34:28;;;;;;;6.55;3.53;;;;;;;;;;4919154;29;20741;-76
2022/09/24 13:37:14;;;;;;;10.82;7.85;;;;;;;;;;4936219;29;20518;-76
2022/09/24 13:39:57;;;;;;;17.17;9.50;;;;;;;;;;4936265;29;20046;-76
2022/09/24 13:42:34;;;;;;;18.77;8.40;;;;;;;;;;4935723;29;20035;-76
2022/09/24 13:45:01;;;;;;;9.05;6.43;;;;;;;;;;4903380;29;20032;-76
2022/09/24 13:47:29;;;;;;;12.73;9.93;;;;;;;;;;4919256;29;20026;-75
2022/09/24 13:50:02;;;;;;;5.28;3.72;;;;;;;;;;4936152;29;20034;-76
2022/09/24 13:52:31;;;;;;;2.75;2.40;;;;;;;;;;4918935;29;20393;-76
2022/09/24 13:54:59;;;;;;;3.15;2.20;;;;;;;;;;4935994;29;20675;-75
2022/09/24 13:57:26;;;;;;;2.72;2.00;;;;;;;;;;4918795;29;20055;-76
2022/09/24 14:00:03;;;;;;;10.45;3.50;;;;;;;;;;4918861;29;20504;-75
2022/09/24 14:02:31;;;;;;;3.15;2.75;;;;;;;;;;4936120;29;20032;-75
2022/09/24 14:04:57;;;;;;;13.93;4.78;;;;;;;;;;4918901;29;20024;-75
2022/09/24 14:07:24;;;;;;;25.90;7.57;;;;;;;;;;4935962;29;20023;-75
2022/09/24 14:10:00;;;;;;;9.00;3.75;;;;;;;;;;4936022;29;20044;-75
2022/09/24 14:12:25;;;;;;;4.20;2.50;;;;;;;;;;4935763;29;20058;-75
2022/09/24 14:14:52;;;;;;;10.05;3.83;;;;;;;;;;4918714;29;20051;-75
2022/09/24 14:17:18;;;;;;;9.25;4.60;;;;;;;;;;4938490;29;20036;-75
2022/09/24 14:19:43;;;;;;;8.35;3.97;;;;;;;;;;4939559;29;20026;-75
2022/09/24 14:22:12;;;;;;;7.65;3.97;;;;;;;;;;4906175;29;20027;-75
2022/09/24 14:24:53;;;;;;;12.88;6.07;;;;;;;;;;4938965;29;20075;-75
2022/09/24 14:27:20;;;;;;;8.43;3.40;;;;;;;;;;4921625;29;20066;-75
2022/09/24 14:29:46;;;;;;;5.85;3.30;;;;;;;;;;4921711;29;20027;-75
2022/09/24 14:32:27;;;;;;;5.70;4.05;;;;;;;;;;4938687;29;20097;-75
2022/09/24 14:34:57;;;;;;;4.75;3.17;;;;;;;;;;4921709;29;20031;-75
2022/09/24 14:37:29;;;;;;;3.75;2.72;;;;;;;;;;4921675;29;20035;-75
2022/09/24 14:40:03;;;;;;;4.07;2.53;;;;;;;;;;4938408;29;20548;-75
2022/09/24 14:42:35;;;;;;;2.35;2.15;;;;;;;;;;4938654;29;20038;-75
2022/09/24 14:45:03;;;;;;;3.92;3.08;;;;;;;;;;4906089;29;20028;-75
2022/09/24 14:47:30;;;;;;;7.93;4.22;;;;;;;;;;4906345;29;20046;-76
2022/09/24 14:49:55;;;;;;;3.17;2.63;;;;;;;;;;4942649;29;20043;-76
2022/09/24 14:52:30;;;;;;;4.18;2.90;;;;;;;;;;4943048;29;20024;-75
2022/09/24 14:55:00;;;;;;;6.82;3.47;;;;;;;;;;4922709;29;20040;-75
2022/09/24 14:57:25;;;;;;;8.23;4.30;;;;;;;;;;4940007;29;20054;-76
2022/09/24 14:59:51;;;;;;;3.00;2.70;;;;;;;;;;4940285;29;20035;-77
2022/09/24 15:02:19;;;;;;;2.72;2.50;;;;;;;;;;4939419;29;20110;-77
2022/09/24 15:04:45;;;;;;;10.98;6.82;;;;;;;;;;4922572;29;20016;-76
2022/09/24 15:07:15;;;;;;;3.08;2.88;;;;;;;;;;4921607;29;20032;-76